Terminal Aerodrome Forecast
Issued by NWS Jackson, MS

Current Version | Previous Version | Text Only | Print | Product List | Glossary On
Versions: 1 2 3 4 5 6 7 8 9 10 11 12 13 14 15
000
FTUS44 KJAN 232320
TAFMEI
TAF
KMEI 232320Z 2400/2424 31006KT P6SM SCT025 OVC050
     FM240600 32005KT P6SM VCSH BKN030
     FM240800 30004KT P6SM SHRA BKN015
     FM241500 29010KT P6SM OVC015
     FM241700 29012KT P6SM OVC035
     FM241900 27015G21KT P6SM SCT250=

USA.gov is the U.S. government's official web portal to all federal, state and local government web resources and services.